Terminal Aerodrome Forecast
Issued by NWS Topeka, KS

Home | Current Version | Previous Version | Text Only | Print | Product List | Glossary On
Versions: 1 2 3 4 5 6 7 8 9 10 11 12 13 14 15 16
934
FTUS43 KTOP 192100 AAA
TAFTOP
TAF AMD
KTOP 192100Z 1921/2018 18012KT P6SM BKN019
     FM192300 18010KT P6SM SCT019
     FM200200 17010KT P6SM BKN015
     FM200800 16008KT 4SM -SHRA BR VCTS OVC025CB
     FM201100 16009KT 4SM BR VCSH OVC009
     FM201400 18008KT P6SM OVC015=

USA.gov is the U.S. government's official web portal to all federal, state and local government web resources and services.